Time;durP1;ratioP1;P1;durP2;ratioP2;P2;SDS_P1;SDS_P2;PMS_P1;PMS_P2;Temp;Humidity;BMP_temperature;BMP_pressure;BME280_temperature;BME280_humidity;BME280_pressure;Samples;Min_cycle;Max_cycle;Signal;HPM_P1;HPM_P2
2021/06/12 00:00:07;;;;;;;8.35;5.72;;;;;;;18.69;74.59;101837.38;5153226;27;20058;-57
2021/06/12 00:02:34;;;;;;;9.57;6.00;;;;;;;18.68;74.27;101841.00;5153485;27;20035;-54
2021/06/12 00:05:01;;;;;;;9.38;5.82;;;;;;;18.67;74.43;101839.31;5135280;27;20102;-54
2021/06/12 00:07:28;;;;;;;11.27;5.38;;;;;;;18.66;74.54;101834.09;5153304;27;20046;-57
2021/06/12 00:09:55;;;;;;;9.52;6.20;;;;;;;18.63;74.78;101834.38;5135202;27;20199;-57
2021/06/12 00:12:21;;;;;;;11.32;6.07;;;;;;;18.70;74.54;101839.03;5152954;27;20039;-54
2021/06/12 00:14:48;;;;;;;11.05;6.28;;;;;;;18.64;74.91;101834.25;5134778;27;20046;-53
2021/06/12 00:17:15;;;;;;;9.93;5.50;;;;;;;18.60;74.73;101832.81;5153211;27;20404;-57
2021/06/12 00:19:42;;;;;;;9.98;5.95;;;;;;;18.56;75.26;101829.53;5153222;27;20043;-58
2021/06/12 00:22:09;;;;;;;10.32;6.65;;;;;;;18.57;75.28;101830.41;5150237;27;20051;-55
2021/06/12 00:24:36;;;;;;;9.75;5.90;;;;;;;18.52;75.41;101830.78;5151805;27;20047;-54
2021/06/12 00:27:03;;;;;;;13.00;6.03;;;;;;;18.52;75.31;101828.09;5153299;27;20047;-57
2021/06/12 00:29:30;;;;;;;10.40;5.80;;;;;;;18.41;75.96;101826.34;5152442;27;20563;-58
2021/06/12 00:31:56;;;;;;;9.55;6.25;;;;;;;18.29;76.50;101816.72;5150794;27;20057;-53
2021/06/12 00:34:23;;;;;;;11.30;6.95;;;;;;;18.32;76.22;101819.13;5156666;27;20050;-58
2021/06/12 00:36:51;;;;;;;9.07;6.55;;;;;;;18.36;76.23;101817.06;5156774;27;20042;-58
2021/06/12 00:39:18;;;;;;;9.02;5.97;;;;;;;18.31;76.21;101817.44;5157008;27;20522;-57
2021/06/12 00:41:45;;;;;;;10.88;7.10;;;;;;;18.36;76.27;101817.88;5156930;27;20046;-53
2021/06/12 00:44:12;;;;;;;10.57;6.80;;;;;;;18.29;76.38;101814.03;5156584;27;20039;-54
2021/06/12 00:46:39;;;;;;;12.20;7.68;;;;;;;18.30;76.67;101810.41;5156547;27;20046;-54
2021/06/12 00:49:06;;;;;;;11.98;7.03;;;;;;;18.33;76.88;101812.81;5156610;27;20438;-53
2021/06/12 00:51:36;;;;;;;12.45;7.45;;;;;;;18.26;76.59;101808.97;5134917;27;20066;-52
2021/06/12 00:54:02;;;;;;;11.48;7.53;;;;;;;18.15;77.41;101804.53;5136993;27;20565;-58
2021/06/12 00:56:29;;;;;;;10.88;7.15;;;;;;;18.18;76.98;101798.13;5156621;27;20046;-58
2021/06/12 00:58:56;;;;;;;11.40;7.57;;;;;;;18.13;77.14;101800.31;5156410;27;20050;-57
2021/06/12 01:01:43;;;;;;;11.43;6.88;;;;;;;18.08;77.35;101800.72;5156347;27;20039;-58
2021/06/12 01:04:10;;;;;;;11.05;7.35;;;;;;;18.08;77.12;101804.19;5156490;27;20103;-58
2021/06/12 01:06:37;;;;;;;12.02;6.65;;;;;;;18.13;76.94;101802.97;5138085;27;20042;-57
2021/06/12 01:09:04;;;;;;;11.95;7.43;;;;;;;18.18;76.93;101803.44;5120179;27;20047;-55
2021/06/12 01:11:40;;;;;;;11.88;7.30;;;;;;;18.12;77.17;101794.16;5153515;27;20523;-53
2021/06/12 01:14:18;;;;;;;13.85;6.65;;;;;;;18.07;76.93;101794.53;5155905;27;20077;-54
2021/06/12 01:17:21;;;;;;;12.95;7.43;;;;;;;18.03;77.33;101803.72;5156239;27;20054;-57
2021/06/12 01:19:54;;;;;;;12.35;7.13;;;;;;;18.04;77.42;101818.72;5051896;28;20144;-57
2021/06/12 01:22:23;;;;;;;12.13;7.22;;;;;;;17.99;77.47;101814.75;5123126;27;20049;-58
2021/06/12 01:24:56;;;;;;;10.50;6.57;;;;;;;17.96;78.08;101821.16;5136710;27;20087;-57
2021/06/12 01:27:49;;;;;;;12.25;7.70;;;;;;;17.85;78.73;101819.34;5154036;27;20050;-53
2021/06/12 01:30:22;;;;;;;14.15;8.07;;;;;;;17.78;79.08;101822.63;5137095;27;20066;-54
2021/06/12 01:32:52;;;;;;;13.35;7.93;;;;;;;17.78;79.02;101817.28;5135614;27;20042;-53
2021/06/12 01:35:35;;;;;;;13.52;7.93;;;;;;;17.75;78.95;101815.72;5136008;27;20050;-53
2021/06/12 01:38:04;;;;;;;12.88;7.07;;;;;;;17.82;78.76;101813.41;5137212;27;20062;-52
2021/06/12 01:40:35;;;;;;;12.10;7.13;;;;;;;17.81;78.90;101809.94;5135683;27;20043;-58
2021/06/12 01:43:07;;;;;;;12.55;7.80;;;;;;;17.80;79.13;101810.06;5135045;27;20046;-57
2021/06/12 01:45:34;;;;;;;13.13;7.45;;;;;;;17.84;78.75;101811.50;5136980;27;20066;-57
2021/06/12 01:48:01;;;;;;;13.75;7.68;;;;;;;17.73;78.97;101810.53;5137226;27;20095;-58
2021/06/12 01:50:29;;;;;;;12.95;7.05;;;;;;;17.76;79.46;101813.94;5137300;27;20369;-58
2021/06/12 01:52:57;;;;;;;12.68;7.35;;;;;;;17.74;79.14;101806.91;5155271;27;20527;-50
2021/06/12 01:55:28;;;;;;;12.27;7.18;;;;;;;17.87;78.67;101809.44;5155646;27;20051;-58
2021/06/12 01:57:54;;;;;;;13.15;7.60;;;;;;;17.84;78.57;101814.16;5137022;27;20131;-58
2021/06/12 02:00:23;;;;;;;12.98;7.68;;;;;;;17.88;78.21;101799.63;5155236;27;20050;-58
2021/06/12 02:02:50;;;;;;;12.32;6.53;;;;;;;17.84;78.96;101803.50;5155378;27;20042;-57
2021/06/12 02:05:20;;;;;;;13.82;7.32;;;;;;;17.86;78.74;101793.56;5155156;27;20046;-58
2021/06/12 02:07:47;;;;;;;15.13;7.60;;;;;;;17.88;78.47;101796.97;5136691;27;20054;-52
2021/06/12 02:10:20;;;;;;;12.88;7.22;;;;;;;17.85;78.81;101802.56;5155081;27;20093;-58
2021/06/12 02:12:49;;;;;;;14.25;8.07;;;;;;;17.85;78.67;101799.88;5136780;27;20076;-57
2021/06/12 02:15:16;;;;;;;13.60;7.28;;;;;;;17.86;79.00;101802.41;5136908;27;20055;-57
2021/06/12 02:17:43;;;;;;;14.77;7.88;;;;;;;17.93;78.86;101791.28;5154356;27;20042;-57
2021/06/12 02:20:14;;;;;;;14.40;7.38;;;;;;;17.93;78.61;101793.97;5134707;27;20047;-54
2021/06/12 02:22:45;;;;;;;14.15;8.15;;;;;;;17.82;79.21;101790.34;5135516;27;20030;-58
2021/06/12 02:25:13;;;;;;;14.65;7.75;;;;;;;17.84;78.81;101795.53;5136437;27;20041;-58
2021/06/12 02:27:48;;;;;;;14.73;7.68;;;;;;;17.81;79.00;101782.47;5136378;27;20043;-58
2021/06/12 02:30:16;;;;;;;12.05;6.75;;;;;;;17.83;78.86;101791.16;5136660;27;20073;-53
2021/06/12 02:32:46;;;;;;;15.82;7.05;;;;;;;17.84;78.68;101800.84;5134894;27;20049;-52
2021/06/12 02:35:13;;;;;;;12.70;6.78;;;;;;;17.82;78.84;101802.78;5134628;27;20062;-54
2021/06/12 02:37:42;;;;;;;15.20;7.22;;;;;;;17.82;78.13;101800.97;5153974;27;20054;-53
2021/06/12 02:40:09;;;;;;;12.95;6.70;;;;;;;17.78;78.76;101799.53;5135778;27;20046;-53
2021/06/12 02:42:36;;;;;;;13.48;7.32;;;;;;;17.73;78.75;101796.41;5135982;27;20556;-54
2021/06/12 02:45:06;;;;;;;13.27;6.60;;;;;;;17.73;78.46;101786.59;5136069;27;20046;-54
2021/06/12 02:47:36;;;;;;;10.93;6.18;;;;;;;17.78;78.38;101786.25;5154407;27;20545;-54
2021/06/12 02:50:04;;;;;;;11.88;5.53;;;;;;;17.73;78.34;101786.59;5136011;27;20046;-53
2021/06/12 02:52:33;;;;;;;12.70;5.70;;;;;;;17.80;78.38;101788.78;5135802;27;20038;-52
2021/06/12 02:55:02;;;;;;;12.20;6.25;;;;;;;17.78;78.25;101782.72;5134877;27;20047;-54
2021/06/12 02:57:30;;;;;;;12.30;6.07;;;;;;;17.64;79.09;101783.84;5135230;27;20038;-53
2021/06/12 02:59:58;;;;;;;12.50;6.03;;;;;;;17.71;78.74;101775.25;5133796;27;20054;-53
2021/06/12 03:02:25;;;;;;;13.45;6.03;;;;;;;17.67;79.47;101779.13;5135507;27;20039;-57
2021/06/12 03:04:52;;;;;;;13.13;6.80;;;;;;;17.72;79.35;101792.91;5154140;27;20047;-57
2021/06/12 03:07:21;;;;;;;11.88;6.32;;;;;;;17.79;78.72;101789.72;5135902;27;20051;-57
2021/06/12 03:09:48;;;;;;;12.80;6.10;;;;;;;17.85;78.63;101789.25;5118875;27;20055;-57
2021/06/12 03:12:15;;;;;;;15.55;7.25;;;;;;;17.86;78.97;101796.25;5134116;27;20077;-57
2021/06/12 03:14:43;;;;;;;14.95;6.75;;;;;;;17.89;78.69;101794.19;5117095;27;20095;-58
2021/06/12 03:17:10;;;;;;;14.50;6.45;;;;;;;17.83;78.41;101788.50;5153477;27;20046;-58
2021/06/12 03:19:38;;;;;;;12.50;6.28;;;;;;;17.90;78.29;101777.25;5135762;27;20402;-58
2021/06/12 03:22:05;;;;;;;15.63;6.47;;;;;;;17.83;78.78;101783.19;5135037;27;20547;-58
2021/06/12 03:24:32;;;;;;;13.48;6.40;;;;;;;17.86;78.61;101774.94;5151358;27;20115;-57
2021/06/12 03:27:00;;;;;;;12.50;6.63;;;;;;;17.83;78.75;101781.41;5152301;27;20058;-58
2021/06/12 03:29:28;;;;;;;16.48;6.35;;;;;;;17.73;78.92;101778.63;5153920;27;20039;-58
2021/06/12 03:31:55;;;;;;;15.15;7.03;;;;;;;17.77;78.84;101778.38;5135793;27;20516;-58
2021/06/12 03:34:22;;;;;;;15.93;6.20;;;;;;;17.79;78.77;101781.75;5135708;27;20049;-57
2021/06/12 03:36:50;;;;;;;12.35;6.30;;;;;;;17.83;78.65;101773.41;5153789;27;20103;-58
2021/06/12 03:39:17;;;;;;;10.93;5.75;;;;;;;17.85;78.65;101770.63;5152535;27;20099;-58
2021/06/12 03:41:45;;;;;;;12.63;5.78;;;;;;;17.82;78.78;101769.06;5132882;27;20511;-57
2021/06/12 03:44:13;;;;;;;12.27;6.13;;;;;;;17.86;78.70;101765.19;5153151;27;20054;-58
2021/06/12 03:46:42;;;;;;;12.82;6.03;;;;;;;17.86;78.82;101772.28;5135298;27;20043;-58
2021/06/12 03:49:10;;;;;;;14.57;5.95;;;;;;;17.92;78.60;101769.16;5134905;27;20066;-58
2021/06/12 03:51:38;;;;;;;10.82;5.43;;;;;;;17.84;78.72;101772.41;5131663;27;20392;-58
2021/06/12 03:54:07;;;;;;;12.55;5.90;;;;;;;17.83;78.62;101770.75;5134433;27;20050;-58
2021/06/12 03:56:37;;;;;;;12.82;5.75;;;;;;;17.84;78.91;101783.06;5135423;27;20085;-58
2021/06/12 03:59:06;;;;;;;12.50;5.65;;;;;;;17.89;78.33;101780.03;5135391;27;20481;-49
2021/06/12 04:01:34;;;;;;;12.27;5.80;;;;;;;17.93;78.81;101807.25;5135188;27;20497;-53
2021/06/12 04:04:01;;;;;;;10.95;5.75;;;;;;;17.93;78.55;101802.81;5135237;27;20049;-53
2021/06/12 04:06:28;;;;;;;12.75;6.18;;;;;;;17.87;78.86;101797.94;5118974;27;20043;-51
2021/06/12 04:08:54;;;;;;;10.65;5.97;;;;;;;17.88;78.63;101791.66;5157797;27;20520;-53
2021/06/12 04:11:21;;;;;;;12.80;5.88;;;;;;;17.87;78.65;101798.81;5157568;27;20053;-53
2021/06/12 04:13:48;;;;;;;12.98;5.30;;;;;;;17.84;79.33;101801.69;5155479;27;20047;-54
2021/06/12 04:16:15;;;;;;;12.73;5.78;;;;;;;17.88;79.08;101810.28;5137546;27;20043;-53
2021/06/12 04:18:42;;;;;;;14.00;6.32;;;;;;;17.86;78.96;101812.19;5157433;27;20080;-58
2021/06/12 04:21:09;;;;;;;11.95;5.70;;;;;;;17.86;79.45;101812.19;5154860;27;20046;-58
2021/06/12 04:23:36;;;;;;;10.38;5.68;;;;;;;17.90;78.98;101800.34;5155690;27;20049;-58
2021/06/12 04:26:03;;;;;;;11.98;5.63;;;;;;;17.89;79.26;101806.66;5156623;27;20054;-58
2021/06/12 04:28:29;;;;;;;12.80;5.63;;;;;;;17.88;79.29;101807.63;5155753;27;20039;-58
2021/06/12 04:30:56;;;;;;;12.10;5.57;;;;;;;17.83;79.38;101810.66;5155943;27;20053;-58
2021/06/12 04:33:23;;;;;;;12.73;6.38;;;;;;;17.82;79.70;101803.66;5138877;27;20469;-58
2021/06/12 04:35:50;;;;;;;12.80;6.30;;;;;;;17.89;79.26;101801.34;5156885;27;20061;-58
2021/06/12 04:38:17;;;;;;;11.52;5.93;;;;;;;17.90;79.31;101800.34;5138308;27;20405;-57
2021/06/12 04:40:44;;;;;;;13.43;5.78;;;;;;;17.92;79.61;101809.09;5138286;27;20054;-54
2021/06/12 04:43:12;;;;;;;14.18;6.50;;;;;;;18.01;79.21;101800.38;5138502;27;20070;-54
2021/06/12 04:45:40;;;;;;;13.02;6.47;;;;;;;17.98;79.11;101797.94;5121651;27;20043;-53
2021/06/12 04:48:07;;;;;;;9.80;5.75;;;;;;;18.08;78.93;101795.38;5155864;27;20055;-54
2021/06/12 04:50:38;;;;;;;12.45;6.53;;;;;;;18.06;78.90;101799.97;5136762;27;20034;-58
2021/06/12 04:53:06;;;;;;;10.52;6.20;;;;;;;18.07;78.99;101797.19;5155190;27;20100;-54
2021/06/12 04:55:33;;;;;;;15.57;7.22;;;;;;;18.08;78.63;101800.72;5156803;27;20052;-58
2021/06/12 04:58:01;;;;;;;11.13;6.45;;;;;;;18.10;79.02;101800.56;5156144;27;20386;-58
2021/06/12 05:00:28;;;;;;;13.63;6.93;;;;;;;18.15;78.80;101806.38;5155060;27;20058;-53
2021/06/12 05:02:55;;;;;;;12.73;7.07;;;;;;;18.10;79.21;101811.22;5118523;27;20058;-54
2021/06/12 05:05:22;;;;;;;13.02;7.70;;;;;;;18.10;78.98;101805.91;5155943;27;20081;-53
2021/06/12 05:07:49;;;;;;;14.82;8.48;;;;;;;18.12;78.53;101814.59;5156252;27;20744;-55
2021/06/12 05:10:22;;;;;;;13.77;8.90;;;;;;;18.08;78.87;101806.03;5138074;27;20062;-55
2021/06/12 05:12:49;;;;;;;16.63;8.48;;;;;;;18.07;79.25;101809.66;5136984;27;20046;-54
2021/06/12 05:15:16;;;;;;;16.27;9.48;;;;;;;18.02;78.76;101815.34;5154568;27;20046;-54
2021/06/12 05:17:43;;;;;;;15.52;9.07;;;;;;;18.07;78.78;101813.16;5136061;27;20047;-54
2021/06/12 05:20:11;;;;;;;16.02;9.82;;;;;;;18.07;78.88;101821.13;5137466;27;20054;-54
2021/06/12 05:22:42;;;;;;;16.48;9.07;;;;;;;18.14;78.80;101825.97;5156064;27;20049;-53
2021/06/12 05:25:09;;;;;;;17.60;10.82;;;;;;;18.05;78.49;101820.44;5136601;27;20496;-54
2021/06/12 05:27:35;;;;;;;15.00;10.43;;;;;;;18.10;78.10;101822.69;5154131;27;20397;-53
2021/06/12 05:30:03;;;;;;;18.17;9.85;;;;;;;18.12;78.27;101814.59;5155154;27;20050;-55
2021/06/12 05:32:30;;;;;;;17.02;11.13;;;;;;;18.15;78.25;101819.69;5137506;27;20419;-54
2021/06/12 05:34:58;;;;;;;15.93;10.10;;;;;;;18.20;78.08;101828.09;5155667;27;20050;-54
2021/06/12 05:37:24;;;;;;;17.25;9.80;;;;;;;18.36;77.82;101841.00;5152283;27;20046;-55
2021/06/12 05:39:51;;;;;;;18.02;10.40;;;;;;;18.36;77.23;101843.69;5136414;27;20533;-54
2021/06/12 05:42:18;;;;;;;14.52;9.48;;;;;;;18.42;77.30;101848.50;5155807;27;20437;-54
2021/06/12 05:44:46;;;;;;;16.00;10.65;;;;;;;18.36;77.28;101849.84;5137296;27;20659;-54
2021/06/12 05:47:13;;;;;;;15.02;10.35;;;;;;;18.28;77.08;101856.78;5137074;27;20058;-55
2021/06/12 05:49:40;;;;;;;17.15;11.02;;;;;;;18.33;77.00;101855.41;5137196;27;20065;-58
2021/06/12 05:52:07;;;;;;;14.88;10.48;;;;;;;18.31;76.79;101861.84;5137143;27;20068;-54
2021/06/12 05:54:33;;;;;;;17.77;11.30;;;;;;;18.27;77.17;101871.06;5155456;27;20393;-52
2021/06/12 05:57:00;;;;;;;17.23;10.45;;;;;;;18.28;77.09;101857.63;5137211;27;20047;-52
2021/06/12 05:59:27;;;;;;;16.70;10.30;;;;;;;18.38;77.00;101845.25;5155587;27;20062;-54
2021/06/12 06:01:54;;;;;;;17.90;9.50;;;;;;;18.45;76.85;101850.03;5154921;27;20055;-55
2021/06/12 06:04:21;;;;;;;17.50;9.25;;;;;;;18.57;76.99;101855.22;5155261;27;20099;-55
2021/06/12 06:06:48;;;;;;;14.82;8.60;;;;;;;18.65;76.13;101849.25;5155186;27;20447;-55
2021/06/12 06:09:14;;;;;;;15.20;9.85;;;;;;;18.73;75.22;101851.25;5136774;27;20397;-55
2021/06/12 06:11:42;;;;;;;16.35;9.43;;;;;;;18.78;74.84;101841.06;5154997;27;20051;-55
2021/06/12 06:14:08;;;;;;;13.60;8.35;;;;;;;18.89;74.12;101837.53;5155022;27;20043;-54
2021/06/12 06:16:36;;;;;;;14.82;8.55;;;;;;;18.95;73.95;101837.00;5136644;27;20489;-54
2021/06/12 06:19:03;;;;;;;12.93;7.97;;;;;;;19.02;73.77;101842.63;5154935;27;20076;-54
2021/06/12 06:21:29;;;;;;;17.52;7.70;;;;;;;19.10;73.14;101837.50;5154510;27;20046;-55
2021/06/12 06:23:56;;;;;;;13.23;7.40;;;;;;;19.26;72.64;101842.34;5154620;27;20557;-55
2021/06/12 06:26:23;;;;;;;13.80;7.60;;;;;;;19.36;72.27;101840.59;5154418;27;20038;-55
2021/06/12 06:28:50;;;;;;;13.05;6.95;;;;;;;19.54;72.56;101842.63;5135883;27;20054;-54
2021/06/12 06:31:17;;;;;;;13.20;7.72;;;;;;;19.45;70.74;101843.44;5154328;27;20421;-54
2021/06/12 06:33:44;;;;;;;14.98;7.63;;;;;;;19.52;70.95;101848.06;5154428;27;20042;-58
2021/06/12 06:36:11;;;;;;;12.15;7.53;;;;;;;19.57;70.45;101850.34;5136393;27;20042;-58
2021/06/12 06:38:38;;;;;;;14.88;6.53;;;;;;;19.56;70.33;101854.00;5136306;27;20050;-60
2021/06/12 06:41:04;;;;;;;13.45;6.45;;;;;;;19.74;69.62;101847.06;5154693;27;20046;-59
2021/06/12 06:43:31;;;;;;;11.00;6.40;;;;;;;19.77;69.20;101846.78;5154511;27;20042;-58
2021/06/12 06:45:58;;;;;;;11.10;6.00;;;;;;;19.92;69.17;101859.78;5154752;27;20527;-59
2021/06/12 06:48:25;;;;;;;12.13;6.30;;;;;;;20.06;68.05;101862.03;5154427;27;20117;-59
2021/06/12 06:50:52;;;;;;;10.73;5.95;;;;;;;20.10;67.42;101857.28;5154227;27;20055;-55
2021/06/12 06:53:19;;;;;;;9.40;4.85;;;;;;;20.14;66.95;101852.50;5136039;27;20042;-55
2021/06/12 06:55:45;;;;;;;13.07;5.80;;;;;;;20.22;66.26;101858.84;5118774;27;20050;-54
2021/06/12 06:58:12;;;;;;;10.13;4.85;;;;;;;20.36;65.49;101856.75;5154058;27;20053;-56
2021/06/12 07:00:39;;;;;;;10.50;5.15;;;;;;;20.46;65.12;101859.41;5153802;27;20534;-56
2021/06/12 07:03:06;;;;;;;9.98;4.50;;;;;;;20.57;64.38;101867.28;5154062;27;20061;-59
2021/06/12 07:05:33;;;;;;;9.80;4.38;;;;;;;20.75;63.60;101862.94;5154136;27;20035;-59
2021/06/12 07:08:00;;;;;;;10.18;4.28;;;;;;;20.94;63.63;101861.22;5135543;27;20094;-56
2021/06/12 07:10:27;;;;;;;7.78;3.85;;;;;;;20.99;61.09;101858.97;5118412;27;20050;-57
2021/06/12 07:13:01;;;;;;;6.35;3.40;;;;;;;21.20;60.65;101863.28;5153780;27;20110;-59
2021/06/12 07:15:28;;;;;;;9.60;3.47;;;;;;;21.35;62.12;101860.97;5153622;27;20983;-58
2021/06/12 07:17:55;;;;;;;8.45;3.45;;;;;;;21.33;57.25;101857.63;5134817;27;20047;-58
2021/06/12 07:20:23;;;;;;;9.15;3.58;;;;;;;21.42;57.31;101868.28;5153486;27;20071;-58
2021/06/12 07:22:49;;;;;;;8.27;3.58;;;;;;;21.40;56.77;101862.22;5135070;27;20039;-58
2021/06/12 07:25:17;;;;;;;7.60;3.05;;;;;;;21.60;56.48;101867.53;5153424;27;20077;-58
2021/06/12 07:27:44;;;;;;;8.38;2.90;;;;;;;21.77;55.42;101861.41;5135345;27;20095;-58
2021/06/12 07:30:11;;;;;;;5.70;2.63;;;;;;;21.65;54.52;101870.63;5153727;27;20416;-58
2021/06/12 07:32:38;;;;;;;6.85;3.00;;;;;;;21.57;54.57;101879.38;5153917;27;20065;-58
2021/06/12 07:35:05;;;;;;;7.20;3.00;;;;;;;21.71;54.62;101875.38;5135538;27;20122;-58
2021/06/12 07:37:32;;;;;;;8.68;2.95;;;;;;;21.83;54.06;101875.16;5153794;27;20047;-59
2021/06/12 07:39:59;;;;;;;6.50;3.10;;;;;;;21.92;53.39;101877.81;5153491;27;20043;-58
2021/06/12 07:42:26;;;;;;;4.82;2.40;;;;;;;21.89;52.68;101878.09;5156426;27;20044;-58
2021/06/12 07:44:56;;;;;;;6.30;2.60;;;;;;;21.75;52.91;101882.09;5157856;27;20059;-56
2021/06/12 07:47:22;;;;;;;6.50;3.10;;;;;;;21.65;51.84;101886.69;5138199;27;20505;-56
2021/06/12 07:49:51;;;;;;;6.88;2.90;;;;;;;21.62;52.59;101892.31;5138189;27;20081;-58
2021/06/12 07:52:17;;;;;;;5.20;2.42;;;;;;;21.38;50.83;101890.13;5157628;27;20054;-58
2021/06/12 07:54:44;;;;;;;5.25;2.22;;;;;;;21.37;50.82;101894.63;5157047;27;20039;-58
2021/06/12 07:57:12;;;;;;;5.03;2.55;;;;;;;21.48;50.29;101892.78;5155605;27;20480;-57
2021/06/12 07:59:39;;;;;;;5.43;2.38;;;;;;;21.57;50.19;101898.13;5156897;27;20053;-56
2021/06/12 08:02:05;;;;;;;6.18;2.58;;;;;;;21.61;50.48;101907.53;5157420;27;20062;-57
2021/06/12 08:04:32;;;;;;;7.03;2.50;;;;;;;21.62;50.46;101916.41;5157838;27;20045;-58
2021/06/12 08:06:59;;;;;;;6.43;2.47;;;;;;;21.65;49.76;101907.22;5138855;27;20121;-56
2021/06/12 08:09:26;;;;;;;4.68;2.70;;;;;;;21.73;49.42;101910.00;5155320;27;20053;-56
2021/06/12 08:11:53;;;;;;;6.80;2.58;;;;;;;21.67;49.34;101907.94;5155624;27;20065;-58
2021/06/12 08:14:20;;;;;;;8.60;2.83;;;;;;;21.67;49.88;101910.63;5157282;27;20043;-55
2021/06/12 08:16:47;;;;;;;5.85;2.95;;;;;;;21.76;49.84;101921.28;5157283;27;20131;-56
2021/06/12 08:19:14;;;;;;;6.35;2.70;;;;;;;21.60;49.40;101915.72;5157176;27;20043;-57
2021/06/12 08:21:41;;;;;;;4.82;2.50;;;;;;;21.79;49.80;101906.75;5156831;27;20103;-57
2021/06/12 08:24:08;;;;;;;5.28;2.17;;;;;;;21.87;49.58;101919.38;5119990;27;20095;-56
2021/06/12 08:26:34;;;;;;;8.23;2.28;;;;;;;21.99;49.44;101922.72;5155120;27;20099;-57
2021/06/12 08:29:01;;;;;;;7.00;2.40;;;;;;;21.90;47.72;101921.78;5121644;27;20546;-57
2021/06/12 08:31:28;;;;;;;8.65;2.90;;;;;;;21.97;48.04;101930.06;5156854;27;20099;-58
2021/06/12 08:33:55;;;;;;;8.35;2.47;;;;;;;22.01;48.28;101918.06;5156959;27;20393;-58
2021/06/12 08:36:22;;;;;;;9.18;2.63;;;;;;;22.16;48.64;101926.44;5156024;27;20051;-57
2021/06/12 08:38:49;;;;;;;6.53;2.30;;;;;;;22.11;47.71;101933.09;5154849;27;20069;-57
2021/06/12 08:41:16;;;;;;;6.18;2.60;;;;;;;22.12;46.70;101931.25;5155384;27;20054;-57
2021/06/12 08:43:43;;;;;;;6.18;2.42;;;;;;;22.27;47.04;101919.00;5138569;27;20095;-57
2021/06/12 08:46:25;;;;;;;6.70;2.63;;;;;;;22.67;46.43;101929.50;5121655;27;20050;-57
2021/06/12 08:48:52;;;;;;;6.90;2.72;;;;;;;22.67;45.79;101938.38;5154983;27;20046;-57
2021/06/12 08:51:20;;;;;;;9.38;2.60;;;;;;;22.93;45.44;101940.25;5138393;27;20061;-57
2021/06/12 08:53:48;;;;;;;5.72;2.35;;;;;;;22.66;46.16;101950.09;5155280;27;20469;-56
2021/06/12 08:56:15;;;;;;;5.60;2.22;;;;;;;22.85;44.57;101949.09;5138239;27;20050;-56
2021/06/12 08:58:42;;;;;;;6.40;2.30;;;;;;;22.61;44.73;101941.66;5138386;27;20133;-55
2021/06/12 09:01:18;;;;;;;6.28;2.75;;;;;;;22.61;44.12;101936.31;5153896;27;20067;-56
2021/06/12 09:03:46;;;;;;;6.43;2.55;;;;;;;22.91;44.50;101931.53;5154775;27;20125;-56
2021/06/12 09:06:18;;;;;;;5.30;2.45;;;;;;;23.13;43.68;101923.00;5138524;27;20046;-55
2021/06/12 09:08:45;;;;;;;6.68;2.10;;;;;;;23.63;45.09;101920.66;5137146;27;20047;-57
2021/06/12 09:11:17;;;;;;;7.35;2.72;;;;;;;23.67;44.01;101930.06;5153875;27;20080;-55
2021/06/12 09:13:44;;;;;;;8.05;2.50;;;;;;;23.66;42.70;101927.53;5155603;27;20048;-58
2021/06/12 09:16:39;;;;;;;6.07;2.67;;;;;;;23.61;42.32;101930.69;5135925;27;20055;-59
2021/06/12 09:19:20;;;;;;;;;;;;;;;23.88;42.60;101929.66;5156087;27;20070;-58
2021/06/12 09:22:00;;;;;;;5.73;2.07;;;;;;;24.37;42.82;101926.28;5153241;27;19925;-56
2021/06/12 09:24:32;;;;;;;5.32;2.13;;;;;;;24.41;42.36;101924.94;5118897;27;20274;-57
2021/06/12 09:27:02;;;;;;;6.30;2.45;;;;;;;24.32;40.73;101930.47;5137907;27;20061;-56
2021/06/12 09:29:38;;;;;;;5.88;2.05;;;;;;;24.32;40.93;101942.06;5155816;27;20046;-56
2021/06/12 09:32:23;;;;;;;6.40;2.00;;;;;;;23.95;41.13;101945.97;5137161;27;20053;-56
2021/06/12 09:34:56;;;;;;;5.72;2.17;;;;;;;23.69;41.63;101951.38;5155151;27;20049;-55
2021/06/12 09:37:28;;;;;;;8.30;2.50;;;;;;;23.65;42.00;101952.69;5136332;27;20046;-56
2021/06/12 09:40:03;;;;;;;7.88;2.40;;;;;;;23.71;42.06;101950.22;5153185;27;20125;-56
2021/06/12 09:42:56;;;;;;;6.10;2.05;;;;;;;23.72;41.95;101959.94;5154443;27;20051;-56
2021/06/12 09:45:24;;;;;;;5.75;2.78;;;;;;;23.70;42.20;101967.31;5155889;27;20047;-56
2021/06/12 09:47:52;;;;;;;8.10;2.35;;;;;;;23.76;42.94;101958.66;5155084;27;20066;-57
2021/06/12 09:50:21;;;;;;;7.88;2.45;;;;;;;23.88;42.41;101967.28;5135377;27;20067;-57
2021/06/12 09:52:52;;;;;;;6.05;2.40;;;;;;;23.78;41.51;101967.38;5153285;27;20497;-56
2021/06/12 09:55:27;;;;;;;5.97;2.42;;;;;;;23.52;41.65;101967.41;5153987;27;20070;-58
2021/06/12 09:57:57;;;;;;;7.22;2.83;;;;;;;23.71;42.04;101968.16;5135754;27;20043;-55
2021/06/12 10:00:39;;;;;;;7.57;2.70;;;;;;;23.49;42.19;101975.75;5135957;27;20075;-55
2021/06/12 10:03:19;;;;;;;5.68;2.50;;;;;;;23.78;42.26;101967.38;5134754;27;20059;-57
2021/06/12 10:05:46;;;;;;;7.28;2.60;;;;;;;23.90;41.61;101967.97;5154376;27;20046;-56
2021/06/12 10:08:14;;;;;;;5.22;2.40;;;;;;;23.89;41.19;101957.38;5117114;27;20043;-57
2021/06/12 10:10:48;;;;;;;7.82;2.80;;;;;;;23.75;41.01;101978.44;5153669;27;20067;-57
2021/06/12 10:13:17;;;;;;;7.55;2.53;;;;;;;23.60;40.89;101978.19;5155278;27;20054;-57
2021/06/12 10:15:46;;;;;;;6.90;2.60;;;;;;;23.58;40.92;101982.03;5136821;27;20567;-57
2021/06/12 10:18:19;;;;;;;7.07;2.75;;;;;;;23.35;41.50;101982.53;5154986;27;20039;-56
2021/06/12 10:20:46;;;;;;;6.07;2.78;;;;;;;23.35;40.56;101995.94;5155017;27;20043;-57
2021/06/12 10:23:14;;;;;;;9.35;2.85;;;;;;;23.56;41.23;101992.94;5154829;27;20043;-56
2021/06/12 10:25:41;;;;;;;6.65;2.60;;;;;;;23.55;41.31;101988.53;5135843;27;20049;-56
2021/06/12 10:28:09;;;;;;;6.47;2.35;;;;;;;23.95;40.41;101994.34;5154126;27;20496;-56
2021/06/12 10:30:40;;;;;;;8.57;2.75;;;;;;;24.04;39.48;101990.69;5153921;27;20047;-59
2021/06/12 10:33:07;;;;;;;4.72;2.20;;;;;;;24.37;40.33;101987.28;5153966;27;20055;-59
2021/06/12 10:35:34;;;;;;;6.95;2.75;;;;;;;24.45;39.27;101990.81;5135590;27;20093;-59
2021/06/12 10:38:05;;;;;;;6.90;2.72;;;;;;;24.16;39.59;101990.38;5153947;27;20039;-54
2021/06/12 10:40:40;;;;;;;6.57;1.90;;;;;;;24.59;38.93;101991.19;5153895;27;20047;-58
2021/06/12 10:43:11;;;;;;;7.55;2.50;;;;;;;24.62;39.80;102001.63;5135786;27;20439;-57
2021/06/12 10:45:38;;;;;;;5.70;2.55;;;;;;;24.67;38.31;101991.22;5154109;27;20058;-56
2021/06/12 10:48:06;;;;;;;7.57;2.55;;;;;;;24.42;38.66;101984.94;5153768;27;20038;-57
2021/06/12 10:50:35;;;;;;;6.53;2.25;;;;;;;24.42;38.43;101990.31;5135644;27;20047;-57
2021/06/12 10:53:20;;;;;;;6.05;2.40;;;;;;;24.44;38.50;101986.44;5153969;27;20043;-56
2021/06/12 10:55:52;;;;;;;8.30;2.75;;;;;;;24.42;37.92;101985.78;5135958;27;20039;-57
2021/06/12 10:58:31;;;;;;;6.53;2.80;;;;;;;24.56;37.48;101991.53;5136081;27;20099;-57
2021/06/12 11:01:07;;;;;;;6.38;2.17;;;;;;;24.79;38.03;101989.91;5153832;27;20104;-56
2021/06/12 11:03:48;;;;;;;6.22;2.50;;;;;;;24.74;38.55;101997.63;5154498;27;20043;-58
2021/06/12 11:06:53;;;;;;;6.28;2.35;;;;;;;24.83;38.56;101997.63;5154261;27;20054;-56
2021/06/12 11:09:30;;;;;;;7.20;2.42;;;;;;;24.60;38.56;101993.72;5136308;27;20077;-55
2021/06/12 11:12:21;;;;;;;6.00;2.38;;;;;;;24.61;38.57;102007.97;5154029;27;20050;-55
2021/06/12 11:15:08;;;;;;;7.63;2.47;;;;;;;23.87;39.81;102010.38;5143590;27;20046;-58
2021/06/12 11:17:36;;;;;;;6.28;2.22;;;;;;;24.14;39.43;102004.81;5153464;27;20427;-56
2021/06/12 11:20:02;;;;;;;7.35;2.53;;;;;;;24.07;39.51;102008.34;5135413;27;20055;-56
2021/06/12 11:22:51;;;;;;;9.05;2.50;;;;;;;24.02;39.09;102006.09;5154113;27;20439;-57
2021/06/12 11:25:18;;;;;;;7.50;2.63;;;;;;;24.31;39.00;102007.59;5154116;27;20081;-56
2021/06/12 11:27:49;;;;;;;6.10;2.50;;;;;;;24.35;37.27;102008.09;5153948;27;20046;-56